Havelock, North Carolina
Current Conditions -  °F | °C
As of 2:54 PM on Monday 22 Dec 2014 (Local Time) from KNKT Reporting Station
Haze Haze  
Wind Chill: 50°   Ceiling: 400
Heat Index: 50°   Visibility: 4mi
Dew Point: 48°   Wind: 13mph
Humidity: 93%   Direction: 330°NNW
Pressure: 29.99"   Gusts: NA
Location:  34.88°N, 76.9°W
Report Text: KNKT 221954Z 33011KT 4SM BR OVC004 10/09 A2999 RMK AO2 SLP151 T01000089 $
Loading
Personal Weather Stations






























Interactive Weather Map New forecast layout! Learn more

10-Day Weather Forecast

Advertisements
Track Severe Weather on mobile